Località Giorno Ora Temp. Umid. Relat. Dew Point Press. Atm. Velocità Vento Direz. Vento Precip. Temp.
Min
Temp.
Max
Abano (PD) 28/05/18 05.05 19.7 °C 88 % 17.7 °C 1014.8 hPa 0.0 Km/h NNW 0.0 mm  19.7 °C 21.3 °C
Acquaviva delle Fonti (BA) 28/05/18 05.08 16.3 °C 78 % 12.4 °C 1017.8 hPa 0.0 Km/h SW 0.0 mm  16.2 °C 18.9 °C
Ala (TN) 28/05/18 05.08 17.4 °C 84 % 14.7 °C 1018.2 hPa 3.2 Km/h E 0.0 mm  16.7 °C 18.5 °C
Alleghe (BL) 28/05/18 05.08 9.7 °C 94 % 8.8 °C 1008.5 hPa 0.0 Km/h ESE 0.0 mm  9.7 °C 12.3 °C
Alleghe Lago (BL) 26/05/18 22.20 15.9 °C 84 % 13.2 °C 1023.0 hPa 0.0 Km/h SE 3.1 mm  11.6 °C 23.1 °C
Ancona (AN) 28/05/18 04.55 17.4 °C 96 % 16.8 °C 1017.2 hPa 0.0 Km/h --- 0.0 mm  17.3 °C 20.3 °C
Ancona loc. Brecce Bianche (AN) 28/05/18 04.59 17.5 °C 82 % 14.4 °C 1022.2 hPa 0.0 Km/h NNW 0.0 mm  17.3 °C 20.5 °C
Ardea (RM) 28/05/18 05.07 18.0 °C 86 % 15.6 °C 1017.7 hPa 0.0 Km/h SE 0.0 mm  18.0 °C 19.9 °C
Arenzano (GE) 28/05/18 05.08 22.8 °C 63 % 15.4 °C 1016.8 hPa 12.9 Km/h NNW 0.0 mm  22.3 °C 23.3 °C
Arquà Polesine (RO) 28/05/18 05.08 19.2 °C 88 % 17.2 °C 1018.0 hPa 0.0 Km/h NW 0.0 mm  19.2 °C 21.3 °C
Arzignano loc. Castello (VI) 27/05/18 22.45 19.1 °C 87 % 16.9 °C 1016.5 hPa 0.0 Km/h WNW 12.8 mm  16.4 °C 30.3 °C
Arzignano Pugnello (VI) 28/05/18 05.08 19.2 °C 79 % 15.6 °C 1014.7 hPa 0.0 Km/h NNW 0.0 mm  18.6 °C 20.4 °C
Arzignano San Bortolo (VI) 28/05/18 05.02 22.0 °C 67 % 15.6 °C 1014.4 hPa 4.8 Km/h N 0.0 mm  21.3 °C 23.3 °C
Arzignano Tezze (VI) 28/05/18 05.00 16.8 °C 95 % 16.0 °C 1016.1 hPa 0.0 Km/h NW 0.0 mm  16.8 °C 19.4 °C
Asiago Rifugio Val Formica (VI) 28/05/18 05.00 7.2 °C 95 % 6.4 °C 1016.5 hPa 0.0 Km/h N 0.0 mm  7.2 °C 7.2 °C
Avenza-Carrara (MS) 25/05/18 10.55 22.2 °C 66 % 15.6 °C 1018.3 hPa 0.0 Km/h N 0.0 mm  17.7 °C 22.3 °C
Avio (TN) 28/05/18 05.08 18.1 °C 84 % 15.4 °C 1018.5 hPa 0.0 Km/h NE 0.0 mm  17.9 °C 19.3 °C
Badia Calavena loc. San Valentino (VR) 28/05/18 05.08 17.3 °C 78 % 13.4 °C 1014.4 hPa 12.9 Km/h NNE 0.0 mm  17.2 °C 18.5 °C
Barbara (AN) 28/05/18 05.08 19.1 °C 83 % 16.1 °C 1018.6 hPa 6.8 Km/h S 0.0 mm  18.9 °C 21.1 °C
Barcellona P.G. Centro (ME) 28/05/18 05.08 20.2 °C 70 % 14.5 °C 1017.3 hPa 0.0 Km/h SE 0.0 mm  20.1 °C 21.1 °C
Barcellona Pozzo di Gotto (ME) 28/05/18 05.08 20.1 °C 72 % 14.9 °C 1016.7 hPa 0.0 Km/h SSW 0.0 mm  19.9 °C 21.6 °C
Bardolino (VR) 28/05/18 05.08 19.6 °C 74 % 15.0 °C 1009.8 hPa 32.0 Km/h ENE 0.0 mm  19.6 °C 20.7 °C
Bassano del Grappa (VI) 25/05/18 20.20 24.4 °C 64 % 17.2 °C 1001.4 hPa 0.0 Km/h ENE 0.0 mm  18.4 °C 30.9 °C
Beccacivetta (VR) 28/05/18 04.57 19.6 °C 81 % 16.3 °C 1016.5 hPa 0.0 Km/h WSW 0.0 mm  19.4 °C 21.6 °C
Bellaria Igea Marina (RN) 28/05/18 05.08 19.2 °C 89 % 17.4 °C 1015.6 hPa 0.0 Km/h WSW 0.0 mm  19.2 °C 23.7 °C
Bellaria Igea Marina2 (RN) 28/05/18 05.08 19.4 °C 91 % 17.9 °C 1015.1 hPa 0.0 Km/h WNW 0.0 mm  19.4 °C 23.9 °C
Bellaria Igea Marina3 (RN) 28/05/18 05.08 18.4 °C 77 % 14.3 °C 1014.2 hPa 0.0 Km/h SSE 0.0 mm  18.4 °C 22.9 °C
Belluno Castion (BL) 28/05/18 05.00 14.1 °C 94 % 13.1 °C 1017.6 hPa 0.0 Km/h --- 0.0 mm  13.9 °C 16.5 °C
Bernate Ticino fraz. Casate (MI) 28/05/18 05.08 18.5 °C 77 % 14.4 °C 1016.0 hPa 0.0 Km/h NNE 1.0 mm  18.1 °C 21.3 °C
Besenello (TN) 28/05/18 05.08 16.5 °C 86 % 14.1 °C 1020.3 hPa 4.6 Km/h W 0.0 mm  16.5 °C 18.0 °C
Bientina (PI) 28/05/18 05.09 19.2 °C 90 % 17.5 °C 1014.0 hPa 0.0 Km/h N 0.0 mm  19.2 °C 22.1 °C
Bisignano (CS) 28/05/18 05.09 18.0 °C 72 % 12.9 °C 1019.2 hPa 3.3 Km/h E 0.0 mm  18.0 °C 21.5 °C
Bitti (NU) 28/05/18 05.08 16.5 °C 85 % 14.0 °C 1017.8 hPa 0.0 Km/h --- 0.0 mm  16.1 °C 17.6 °C
Bolognano di Arco (TN) 28/05/18 05.08 14.7 °C 97 % 14.2 °C 1019.0 hPa 6.4 Km/h SE 0.2 mm  14.6 °C 16.5 °C
Bonorva (SS) 28/05/18 05.00 17.1 °C 91 % 15.6 °C 1014.6 hPa 0.0 Km/h SSE 0.0 mm  16.8 °C 20.4 °C
Borgo Valsugana (TN) 28/05/18 04.57 14.3 °C 96 % 13.7 °C 1019.9 hPa 0.0 Km/h W 0.0 mm  14.3 °C 17.5 °C
Borore (NU) 28/05/18 05.08 17.3 °C 93 % 16.1 °C 1015.4 hPa 5.0 Km/h SE 0.0 mm  16.8 °C 17.6 °C
Brebbia (VA) 27/05/18 22.00 22.6 °C 71 % 17.0 °C 1016.6 hPa 3.2 Km/h NNW 0.0 mm  17.7 °C 28.4 °C
Brendola (VI) 28/05/18 05.08 18.5 °C 99 % 18.3 °C 1002.7 hPa 0.0 Km/h SW 0.0 mm  17.7 °C 20.5 °C
Bresega (PD) 27/05/18 21.44 23.8 °C 71 % 18.3 °C 1016.2 hPa 3.0 Km/h NW 0.0 mm  18.4 °C 30.8 °C
Brolo c/da Parrazzà (ME) 28/05/18 05.00 21.9 °C 65 % 15.0 °C 1017.4 hPa 8.0 Km/h ESE 0.0 mm  21.4 °C 22.6 °C
Brugine2 (PD) 27/05/18 22.50 20.2 °C 88 % 18.1 °C 1017.1 hPa 0.0 Km/h WNW 0.0 mm  17.8 °C 29.5 °C
Budoia (PN) 28/05/18 05.00 20.3 °C 70 % 14.6 °C 1016.9 hPa 8.0 Km/h NW 0.0 mm  19.8 °C 21.8 °C
Ca' Gallo (PU) 28/05/18 04.59 18.5 °C 89 % 16.7 °C 1012.8 hPa 1.1 Km/h NW 0.0 mm  18.3 °C 20.6 °C
Calcinato (BS) 28/05/18 05.08 20.1 °C 66 % 13.6 °C 1018.6 hPa 20.9 Km/h ESE 0.0 mm  19.6 °C 20.9 °C
Calliano (TN) 28/05/18 05.08 15.7 °C 91 % 14.3 °C 1018.7 hPa 14.5 Km/h E 0.0 mm  15.6 °C 17.3 °C
Cammarata (AG) 28/05/18 05.08 17.7 °C 58 % 9.3 °C 1021.3 hPa 3.4 Km/h NE 0.0 mm  17.3 °C 20.3 °C
Campoformido (UD) 28/05/18 05.08 19.1 °C 70 % 13.5 °C 1017.1 hPa 1.4 Km/h N 0.0 mm  19.1 °C 21.3 °C
Capodimonte (VT) 28/05/18 05.05 17.9 °C 96 % 17.2 °C 1017.4 hPa 0.0 Km/h N 0.0 mm  17.2 °C 18.9 °C
Caprarola Centro Storico (VT) 28/05/18 05.08 16.7 °C 85 % 14.2 °C 1019.0 hPa 0.0 Km/h WNW 0.0 mm  16.4 °C 17.9 °C
Carceri (PD) 28/05/18 04.56 19.2 °C 90 % 17.8 °C 1015.8 hPa 1.6 Km/h N 0.0 mm  19.2 °C 21.4 °C
Carmignano loc. Seano (PO) 28/05/18 05.09 19.9 °C 90 % 18.2 °C 1016.3 hPa 1.5 Km/h SE 0.0 mm  19.6 °C 22.8 °C
Carpi (MO) 28/05/18 05.09 19.7 °C 86 % 17.3 °C 1015.5 hPa 0.0 Km/h N 0.0 mm  19.4 °C 21.2 °C
Cartigliano (VI) 28/05/18 05.08 19.0 °C 78 % 15.1 °C 1015.6 hPa 0.0 Km/h N 0.0 mm  18.8 °C 21.0 °C
Cassano Magnago (VA) 28/05/18 05.01 18.4 °C 79 % 14.7 °C 1017.2 hPa 9.7 Km/h WNW 1.0 mm  17.8 °C 19.9 °C
Castel d'Azzano (VR) 28/05/18 04.55 19.4 °C 84 % 16.7 °C 1060.4 hPa 0.0 Km/h --- 0.0 mm  19.3 °C 21.6 °C
Castelferro (AL) 28/05/18 05.08 17.1 °C 94 % 16.1 °C 1018.2 hPa 1.6 Km/h SW 0.0 mm  16.5 °C 20.9 °C
Castelfranco Veneto (TV) 28/05/18 05.00 18.9 °C 96 % 18.3 °C 1016.3 hPa 0.0 Km/h --- 0.0 mm  18.8 °C 21.7 °C
Castelgomberto (VI) 23/05/18 11.51 23.1 °C 59 % 14.7 °C 1015.0 hPa 4.8 Km/h SSE 0.0 mm  15.1 °C 24.3 °C
Castelnuovo V.C. (PI) 28/05/18 05.00 17.6 °C 71 % 12.2 °C 1014.8 hPa 0.0 Km/h SSW 0.0 mm  16.1 °C 18.4 °C
Castiglione del Lago (PG) 28/05/18 05.00 16.1 °C 92 % 14.8 °C 1018.8 hPa 0.0 Km/h --- 0.0 mm  16.1 °C 19.6 °C
Cavaria con Premezzo (VA) 28/05/18 05.09 18.4 °C 80 % 15.0 °C 1017.6 hPa 3.0 Km/h WNW 0.6 mm  18.0 °C 19.7 °C
Cavazzale (VI) 25/05/18 18.40 27.7 °C 54 % 17.6 °C 1013.0 hPa 4.8 Km/h SW 0.0 mm  16.2 °C 30.3 °C
Cefalù (PA) 28/05/18 01.44 20.9 °C 77 % 16.7 °C 1013.6 hPa 3.5 Km/h S 0.0 mm  20.3 °C 21.1 °C
Cerea (VR) 27/05/18 22.30 21.5 °C 74 % 16.7 °C 1016.9 hPa 6.4 Km/h NNE 0.0 mm  20.4 °C 31.2 °C
Cerea2 (VR) 28/05/18 05.00 20.2 °C 81 % 16.8 °C 1017.8 hPa 5.5 Km/h ENE 0.0 mm  19.6 °C 21.1 °C
Cima Grappa (TV) 28/05/18 05.09 10.7 °C 98 % 10.4 °C 1019.7 hPa 5.0 Km/h SE 0.0 mm  10.7 °C 11.3 °C
Cismon del Grappa loc. Corlo (VI) 28/05/18 05.09 15.4 °C 92 % 14.1 °C 1020.8 hPa 5.0 Km/h SSE 0.0 mm  15.4 °C 18.4 °C
Cittadella (PD) 27/05/18 22.44 22.3 °C 81 % 18.9 °C 1016.4 hPa 0.0 Km/h SSE 1.5 mm  21.3 °C 30.6 °C
Civita Castellana (VT) 28/05/18 05.09 15.4 °C 85 % 12.9 °C 1017.7 hPa 0.4 Km/h S 0.0 mm  15.3 °C 18.9 °C
Codroipo (UD) 28/05/18 05.08 19.5 °C 67 % 13.2 °C 1016.7 hPa 3.6 Km/h NE 0.0 mm  19.5 °C 22.6 °C
Cogollo del Cengio (VI) 28/05/18 05.06 17.0 °C 84 % 14.3 °C 1017.2 hPa 10.1 Km/h NW 0.0 mm  16.9 °C 20.2 °C
Colle del Piccolo San Bernardo La Thuile (AO) 28/05/18 05.08 2.6 °C 93 % 1.7 °C 1018.3 hPa 13.0 Km/h NE 9.0 mm  2.6 °C 7.3 °C
Cologna Veneta Sant'Andrea (VR) 28/05/18 05.00 20.4 °C 77 % 16.2 °C 1016.4 hPa 1.6 Km/h E 0.0 mm  19.8 °C 20.7 °C
Colognola ai Colli (VR) 28/05/18 05.00 17.6 °C 90 % 15.9 °C 1017.0 hPa 0.0 Km/h NE 0.0 mm  17.5 °C 20.8 °C
Contrada Dosso Gervasio (VR) 28/05/18 05.00 16.7 °C 81 % 13.3 °C 1015.7 hPa 6.0 Km/h NW 0.0 mm  16.6 °C 17.7 °C
Cosseria Lidora (SV) 28/05/18 05.00 15.4 °C 93 % 14.3 °C 1017.2 hPa 6.4 Km/h WNW 2.0 mm  15.3 °C 18.9 °C
Costa di Vittorio Veneto (TV) 28/05/18 05.01 19.5 °C 80 % 16.0 °C 1015.5 hPa 0.0 Km/h E 0.0 mm  19.5 °C 21.1 °C
Costa Volpino (BG) 28/05/18 04.58 15.6 °C 83 % 12.7 °C 1015.2 hPa 1.6 Km/h WNW 0.0 mm  15.6 °C 17.6 °C
Crespano del Grappa2 (TV) 28/05/18 04.59 19.6 °C 73 % 14.6 °C 1013.8 hPa 1.9 Km/h NNE 0.0 mm  18.9 °C 20.1 °C
Dorno (PV) 28/05/18 05.09 18.0 °C 92 % 16.7 °C 1017.7 hPa 10.6 Km/h NW 10.2 mm  17.9 °C 21.3 °C
Dossobuono (VR) 28/05/18 05.09 20.1 °C 76 % 15.7 °C 1018.0 hPa 3.2 Km/h NW 0.0 mm  20.1 °C 22.2 °C
Erbezzo Passo Fittanze (VR) 28/05/18 04.59 11.9 °C 81 % 8.7 °C 1020.5 hPa 10.1 Km/h WNW 0.0 mm  11.1 °C 12.4 °C
Falzè di Piave (TV) 27/05/18 20.29 22.4 °C 82 % 19.2 °C 1017.6 hPa 0.0 Km/h --- 0.0 mm  17.2 °C 30.1 °C
Farra di Soligo (TV) 28/05/18 05.09 19.3 °C 69 % 13.5 °C 1023.4 hPa 0.4 Km/h SSE 0.0 mm  18.4 °C 21.2 °C
Feltre Celarda (BL) 28/05/18 05.09 15.5 °C 95 % 14.7 °C 1019.4 hPa 0.0 Km/h NNE 0.0 mm  15.1 °C 17.3 °C
Ferrara di M.B. (VR) 28/05/18 04.55 12.1 °C 83 % 9.3 °C 1015.9 hPa 3.2 Km/h N 0.0 mm  11.7 °C 13.1 °C
Filo di Argenta (FE) 28/05/18 05.05 18.2 °C 90 % 16.6 °C 1016.7 hPa 0.0 Km/h NNW 0.0 mm  18.2 °C 21.3 °C
Fogliano Redipuglia (GO) 28/05/18 05.09 19.5 °C 70 % 13.9 °C 1016.8 hPa 4.7 Km/h N 0.0 mm  17.7 °C 19.8 °C
Foligno (PG) 28/05/18 04.50 18.6 °C 82 % 15.5 °C 1017.0 hPa 4.8 Km/h ESE 0.0 mm  18.6 °C 20.5 °C
Fumane Contrada La Ca (VR) 28/05/18 05.02 18.3 °C 83 % 15.4 °C 1020.5 hPa 3.2 Km/h SW 0.0 mm  17.7 °C 18.8 °C
Gaggiano (MI) 28/05/18 05.09 19.1 °C 80 % 15.6 °C 1017.8 hPa 9.3 Km/h WSW 0.0 mm  19.1 °C 22.0 °C
Gallio (VI) 28/05/18 05.00 11.2 °C 95 % 10.4 °C 1017.8 hPa 3.2 Km/h NNW 0.0 mm  11.1 °C 13.7 °C
Gardolo (TN) 28/05/18 05.08 14.6 °C 94 % 13.6 °C 1020.6 hPa 0.0 Km/h NNE 0.2 mm  14.6 °C 17.4 °C
Genova Albaro (GE) 28/05/18 05.08 21.2 °C 67 % 14.8 °C 1029.0 hPa 4.8 Km/h N 0.0 mm  20.7 °C 22.7 °C
Genova Erzelli (GE) 28/05/18 05.03 21.2 °C 76 % 16.8 °C 1015.9 hPa 17.7 Km/h N 0.0 mm  20.9 °C 22.6 °C
Gorizia (GO) 28/05/18 05.09 20.0 °C 64 % 13.0 °C 1016.7 hPa 8.3 Km/h NNE 0.0 mm  20.0 °C 22.3 °C
Iglesias (CI) 28/05/18 05.02 20.3 °C 74 % 15.5 °C 1017.8 hPa 4.7 Km/h WSW 0.0 mm  18.6 °C 20.3 °C
Isera loc. Reviano (TN) 28/05/18 05.09 15.3 °C 94 % 14.3 °C 1018.4 hPa 3.2 Km/h SW 0.0 mm  15.2 °C 17.4 °C
Isola d'Elba Marina di Campo (LI) 27/05/18 03.00 17.6 °C 87 % 15.4 °C 582.7 hPa 0.0 Km/h --- 0.0 mm  17.3 °C 18.9 °C
Jesolo (VE) 28/05/18 00.30 21.8 °C 0 % 0.0 °C 1013.8 hPa 6.4 Km/h N 0.0 mm  21.8 °C 22.4 °C
Lavis (TN) 28/05/18 05.05 14.9 °C 91 % 13.3 °C 1020.5 hPa 0.0 Km/h WNW 0.0 mm  14.8 °C 17.2 °C
Laxolo (BG) 28/05/18 05.06 15.1 °C 99 % 14.9 °C 1017.6 hPa 0.0 Km/h NNW 25.4 mm  15.1 °C 26.7 °C
Legnago (VR) 28/05/18 05.05 19.1 °C 91 % 17.6 °C 1016.6 hPa 0.0 Km/h NE 0.0 mm  19.1 °C 21.2 °C
Loano (SV) 28/05/18 0.0 °C 0 % 0.0 °C 0.0 hPa 0.0 Km/h N 0.0 mm  0.0 °C 24.7 °C
Lovere (BG) 28/05/18 05.00 16.4 °C 60 % 0.0 °C 1018.8 hPa 9.3 Km/h WSW 0.0 mm  16.4 °C 18.5 °C
Lugagnano (VR) 28/05/18 05.08 19.7 °C 78 % 15.6 °C 1015.0 hPa 0.0 Km/h NE 0.0 mm  19.2 °C 22.2 °C
Lusiana Sciessere (VI) 28/05/18 05.02 17.8 °C 75 % 13.3 °C 1020.5 hPa 3.2 Km/h ENE 0.0 mm  17.5 °C 18.8 °C
Magnano (BI) 28/05/18 05.09 14.1 °C 99 % 14.0 °C 1024.3 hPa 1.3 Km/h E 20.7 mm  14.0 °C 19.7 °C
Malga Malera (VR) 28/05/18 04.51 11.1 °C  %  °C  hPa 0.0 Km/h 0.0 mm   °C  °C
Malnate San Salvatore (VA) 28/05/18 05.05 15.9 °C 91 % 14.4 °C 1017.2 hPa 1.6 Km/h NNW 1.0 mm  15.9 °C 17.6 °C
Marano Vicentino2 (VI) 28/05/18 05.05 17.6 °C 82 % 14.5 °C 1016.4 hPa 0.0 Km/h SSE 0.0 mm  18.3 °C 21.3 °C
Margone (TN) 27/05/18 21.05 13.6 °C 90 % 11.9 °C 1020.8 hPa 14.6 Km/h SSW 12.4 mm  12.6 °C 22.7 °C
Marina di Montemarciano (AN) 28/05/18 05.05 18.3 °C 91 % 16.8 °C 1016.4 hPa 3.2 Km/h S 0.0 mm  18.3 °C 20.8 °C
Marostica Valle San Floriano (VI) 28/05/18 05.08 17.7 °C 86 % 15.6 °C 1017.5 hPa 0.0 Km/h W 0.0 mm  17.7 °C 22.8 °C
Marta (VT) 28/05/18 05.05 17.4 °C 90 % 15.7 °C 1015.5 hPa 0.0 Km/h W 0.0 mm  17.1 °C 19.2 °C
Masiera di Bagnacavallo (RA) 28/05/18 05.05 18.9 °C 91 % 17.4 °C 1012.1 hPa 2.8 Km/h N 0.0 mm  18.8 °C 21.4 °C
Massarosa (LU) 28/05/18 05.08 21.3 °C 73 % 16.3 °C 1004.5 hPa 0.0 Km/h NNW 0.0 mm  20.5 °C 22.9 °C
Massone di Arco (TN) 28/05/18 05.08 15.9 °C 91 % 14.4 °C 1018.3 hPa 2.0 Km/h NE 0.0 mm  15.9 °C 17.3 °C
Merlara (PD) 28/05/18 05.00 18.8 °C 87 % 16.6 °C 1015.8 hPa 0.0 Km/h --- 0.0 mm  18.7 °C 21.2 °C
Mezzana Bigli (PV) 28/05/18 05.05 19.1 °C 80 % 15.5 °C 1016.4 hPa 8.9 Km/h W 0.0 mm  18.9 °C 21.2 °C
Migliarino (FE) 28/05/18 05.09 20.4 °C 90 % 18.7 °C 1014.8 hPa 0.0 Km/h NW 0.0 mm  20.4 °C 22.4 °C
Miglionico (MT) 28/05/18 05.00 20.7 °C 68 % 14.5 °C 1015.2 hPa 0.0 Km/h NNE 0.0 mm  20.6 °C 22.6 °C
Miola di Piné (TN) 28/05/18 05.08 10.4 °C 95 % 9.6 °C 1019.1 hPa 3.7 Km/h NE 0.0 mm  10.4 °C 13.4 °C
Mirabella Imbaccari (CT) 28/05/18 05.06 18.1 °C 73 % 13.2 °C 1015.9 hPa 0.0 Km/h W 0.0 mm  18.0 °C 20.1 °C
Mizzole (VR) 28/05/18 05.09 18.4 °C 85 % 15.8 °C 1017.1 hPa 0.7 Km/h W 0.0 mm  18.3 °C 22.1 °C
Molina (VR) 27/05/18 17.03 18.0 °C 78 % 14.1 °C 1020.9 hPa 2.4 Km/h NE 8.1 mm  18.0 °C 23.8 °C
Monasterolo Torinese (TO) 28/05/18 05.00 14.3 °C 91 % 12.8 °C 1016.5 hPa 0.0 Km/h WSW 11.5 mm  14.3 °C 20.7 °C
Moneglia loc. Casale (GE) 28/05/18 05.09 21.2 °C 70 % 15.5 °C 1017.8 hPa 0.0 Km/h SW 0.0 mm  20.7 °C 22.3 °C
Moneglia loc. La Secca (GE) 28/05/18 05.09 21.9 °C 73 % 16.8 °C 1016.1 hPa 3.2 Km/h ENE 0.0 mm  21.4 °C 22.9 °C
Mongrando San Michele (BI) 28/05/18 05.00 14.5 °C 94 % 13.5 °C 1017.3 hPa 1.6 Km/h WNW 21.8 mm  14.3 °C 20.1 °C
Monselice (PD) 28/05/18 05.08 21.5 °C 75 % 16.9 °C 1017.2 hPa 12.2 Km/h E 0.0 mm  21.5 °C 23.6 °C
Montebello Vicentino loc. Selva (VI) 28/05/18 05.09 21.9 °C 49 % 10.7 °C 1016.9 hPa 13.0 Km/h NNE 0.0 mm  21.5 °C 23.3 °C
Montecchio Maggiore Sant'Urbano (VI) 28/05/18 04.58 20.3 °C 61 % 12.5 °C 1020.9 hPa 6.4 Km/h NW 0.0 mm  20.0 °C 21.6 °C
Monteforte d'Alpone2 (VR) 28/05/18 05.05 18.6 °C 86 % 16.2 °C 1015.0 hPa 3.2 Km/h NE 0.0 mm  18.5 °C 21.6 °C
Montelabbate (PU) 28/05/18 04.42 18.9 °C 87 % 16.7 °C 1011.1 hPa 2.1 Km/h NW 0.0 mm  18.9 °C 21.1 °C
Montespertoli (FI) 28/05/18 04.59 19.5 °C 79 % 15.8 °C 1018.8 hPa 0.6 Km/h SE 0.0 mm  19.5 °C 22.2 °C
Montopoli in val d'Arno Loc. Capanne (PI) 28/05/18 00.58 19.9 °C 89 % 18.1 °C 1017.5 hPa 4.0 Km/h ESE 0.0 mm  19.9 °C 20.9 °C
Montorio (VR) 28/05/18 04.58 19.2 °C 82 % 16.1 °C 1018.8 hPa 1.8 Km/h ESE 0.0 mm  18.8 °C 22.1 °C
Montorso Vicentino (VI) 28/05/18 05.09 19.8 °C 74 % 15.0 °C 1016.3 hPa 0.0 Km/h ENE 0.0 mm  19.4 °C 20.7 °C
Nichelino (TO) 28/05/18 05.00 16.7 °C 88 % 14.7 °C 1019.6 hPa 12.9 Km/h N 9.6 mm  16.3 °C 21.6 °C
Novara (NO) 28/05/18 01.50 19.0 °C 77 % 14.9 °C 1017.3 hPa 0.0 Km/h NNW 0.0 mm  19.0 °C 22.1 °C
Onara extraurbana (PD) 28/05/18 05.06 17.8 °C 92 % 16.5 °C 1015.8 hPa 0.0 Km/h WSW 0.0 mm  17.7 °C 19.9 °C
Oppeano (VR) 27/05/18 21.35 21.7 °C 67 % 15.3 °C 1013.9 hPa 0.0 Km/h ESE 0.0 mm  21.2 °C 31.7 °C
Oristano (OR) 28/05/18 05.08 19.8 °C 90 % 18.1 °C 1016.0 hPa 1.9 Km/h SW 0.0 mm  19.7 °C 20.8 °C
Orosei (NU) 28/05/18 05.05 18.8 °C 90 % 17.2 °C 1015.4 hPa 0.0 Km/h NW 0.0 mm  18.5 °C 19.8 °C
Ortonovo (SP) 28/05/18 05.09 19.7 °C 79 % 16.0 °C 1016.9 hPa 2.7 Km/h S 0.0 mm  19.4 °C 21.5 °C
Orvieto (TR) 27/05/18 23.16 17.9 °C 84 % 15.2 °C 1016.8 hPa 0.0 Km/h ESE 0.0 mm  15.8 °C 29.2 °C
Ovaro loc. Liariis (UD) 28/05/18 04.55 11.6 °C 96 % 10.9 °C 1019.9 hPa 0.0 Km/h --- 0.2 mm  11.6 °C 13.4 °C
Pace del Mela (ME) 28/05/18 05.09 19.4 °C 65 % 12.7 °C 1018.4 hPa 2.2 Km/h SE 0.0 mm  18.3 °C 21.3 °C
Padergnone (TN) 28/05/18 05.00 16.6 °C 89 % 14.7 °C 1019.2 hPa 10.8 Km/h N 0.0 mm  16.4 °C 18.1 °C
Parella (TO) 28/05/18 04.59 15.2 °C 91 % 13.8 °C 1016.8 hPa 8.0 Km/h WNW 41.9 mm  15.2 °C 21.8 °C
Pastrengo (VR) 28/05/18 04.59 20.3 °C 67 % 13.9 °C 1019.5 hPa 1.3 Km/h NE 0.0 mm  20.0 °C 21.1 °C
Pastrengo Corné (VR) 28/05/18 05.04 19.4 °C 75 % 14.9 °C 1015.2 hPa 0.0 Km/h NE 0.0 mm  18.9 °C 20.4 °C
Pecetto Torinese (TO) 28/05/18 05.00 15.1 °C 92 % 13.8 °C 1017.8 hPa 12.9 Km/h NW 0.5 mm  15.1 °C 20.1 °C
Pedemonte (VR) 28/05/18 05.00 18.4 °C 80 % 14.9 °C 1016.1 hPa 0.0 Km/h N 0.0 mm  18.4 °C 20.8 °C
Perarolo di Arcugnano (VI) 28/05/18 05.09 17.0 °C 88 % 15.0 °C 987.7 hPa 0.0 Km/h NE 0.0 mm  16.9 °C 17.9 °C
Perugia San Mariano (PG) 28/05/18 05.00 17.9 °C 86 % 15.6 °C 1018.5 hPa 0.0 Km/h N 0.0 mm  17.9 °C 20.7 °C
Pescantina Are (VR) 28/05/18 04.57 19.6 °C 75 % 15.0 °C 1016.1 hPa 0.0 Km/h WNW 0.0 mm  19.6 °C 21.8 °C
Peschiera del Garda (VR) 28/05/18 05.05 19.8 °C 80 % 16.2 °C 1017.3 hPa 3.2 Km/h SE 0.0 mm  19.8 °C 21.4 °C
Pian di Castagné (VR) 28/05/18 04.55 21.1 °C 66 % 14.5 °C 1015.8 hPa 20.9 Km/h NE 0.0 mm  20.3 °C 22.7 °C
Pian di Castagné2 (VR) 28/05/18 05.01 19.2 °C 72 % 14.1 °C 1018.8 hPa 1.8 Km/h NNE 0.0 mm  19.0 °C 20.8 °C
Pila Valsesia (VC) 28/05/18 05.05 13.3 °C 95 % 12.5 °C 1016.9 hPa 0.0 Km/h --- 32.0 mm  13.3 °C 15.3 °C
Piovà Massaia (AT) 28/05/18 05.08 15.6 °C 93 % 14.5 °C 1015.7 hPa 3.2 Km/h NW 28.4 mm  15.6 °C 18.3 °C
Piraino contr. Fiumara (ME) 28/05/18 04.55 19.0 °C 80 % 15.5 °C 1018.0 hPa 0.0 Km/h NE 0.0 mm  18.4 °C 19.2 °C
Pisa zona I Passi (PI) 28/05/18 05.09 19.8 °C 77 % 15.6 °C 1017.3 hPa 1.4 Km/h NE 0.0 mm  19.8 °C 22.2 °C
Pomezia (RM) 28/05/18 05.09 20.3 °C 79 % 16.5 °C 1015.8 hPa 0.0 Km/h NNE 0.0 mm  20.2 °C 21.4 °C
Ponte San Nicolò (PD) 28/05/18 04.58 20.9 °C 78 % 16.9 °C 1016.1 hPa 4.8 Km/h NNE 0.0 mm  20.9 °C 22.4 °C
Ponte San Pellegrino (MO) 28/05/18 05.07 18.2 °C 97 % 17.7 °C 1019.3 hPa 3.6 Km/h SW 0.0 mm  18.2 °C 20.5 °C
Pordenone (PN) 28/05/18 05.00 20.2 °C 76 % 15.8 °C 1016.5 hPa 0.0 Km/h NNE 0.0 mm  20.2 °C 23.5 °C
Pozzolo Formigaro (AL) 28/05/18 05.00 18.1 °C 88 % 16.1 °C 1019.2 hPa 2.2 Km/h SSE 0.0 mm  17.5 °C 18.6 °C
Pray (BI) 28/05/18 05.09 14.7 °C 95 % 13.9 °C 1017.7 hPa 2.0 Km/h NW 22.2 mm  14.7 °C 17.2 °C
Reggello (FI) 28/05/18 05.09 18.7 °C 80 % 15.2 °C 1018.5 hPa 11.3 Km/h SO 0.0 mm  17.6 °C 20.0 °C
Riccione (RN) 28/05/18 05.00 19.2 °C 91 % 17.7 °C 1014.5 hPa 0.0 Km/h WSW 0.0 mm  19.1 °C 23.4 °C
Rifugio Bocca di Selva (VR) 28/05/18 05.09 12.3 °C 88 % 10.3 °C 1017.9 hPa 19.3 Km/h NE 0.0 mm  11.8 °C 13.4 °C
Rifugio Primaneve (VR) 28/05/18 05.00 10.7 °C 95 % 9.9 °C 1018.2 hPa 14.5 Km/h NE 0.0 mm  10.6 °C 11.5 °C
Rimini (RN) 28/05/18 04.50 19.7 °C 83 % 16.8 °C 1016.3 hPa 0.0 Km/h W 0.0 mm  19.7 °C 23.8 °C
Rimini Zona Palas (RN) 28/05/18 04.48 19.8 °C 86 % 17.2 °C 1016.5 hPa 0.0 Km/h W 0.0 mm  19.8 °C 23.3 °C
Rivalta sul Mincio (MN) 28/05/18 05.04 18.7 °C 88 % 16.6 °C 1016.2 hPa 2.4 Km/h W 0.0 mm  18.5 °C 21.0 °C
Romano d'Ezzelino Fellette (VI) 28/05/18 05.08 17.6 °C 10 % -14.4 °C 1020.3 hPa 0.0 Km/h NW 0.0 mm  17.6 °C 21.8 °C
Ronciglione Centro (VT) 28/05/18 05.05 17.6 °C 78 % 13.7 °C 1020.0 hPa 2.6 Km/h NNW 0.0 mm  17.4 °C 19.2 °C
Ronciglione - Ponte Cuzzoli (VT) 28/05/18 05.05 16.3 °C 86 % 14.0 °C 1017.2 hPa 3.2 Km/h WNW 0.0 mm  16.3 °C 18.1 °C
Rosolina (RO) 28/05/18 05.00 19.5 °C 93 % 18.3 °C 1016.5 hPa 8.0 Km/h NNW 0.0 mm  19.5 °C 21.3 °C
S. Giovanni Ilarione2 (VR) 28/05/18 05.05 18.4 °C 87 % 16.2 °C 1016.0 hPa 1.6 Km/h NW 0.0 mm  18.3 °C 20.3 °C
S. Giovanni Lupatoto (VR) 28/05/18 05.00 20.1 °C 83 % 17.1 °C 1016.6 hPa 0.0 Km/h --- 0.0 mm  20.0 °C 22.1 °C
S. Giovanni Rotondo (FG) 28/05/18 05.00 17.4 °C 73 % 12.5 °C 1016.5 hPa 0.0 Km/h --- 0.0 mm  17.3 °C 20.0 °C
S. Lorenzo di Vittorio Veneto (TV) 28/05/18 05.05 18.9 °C 77 % 14.8 °C 1017.2 hPa 17.7 Km/h NNW 0.0 mm  18.9 °C 21.1 °C
S. Lorenzo Nuovo (VT) 28/05/18 05.08 17.8 °C 73 % 12.9 °C 1016.8 hPa 1.4 Km/h N 0.0 mm  17.4 °C 19.9 °C
S. Maria di Zevio Loc. 3 Ponti (VR) 28/05/18 05.08 19.3 °C 87 % 17.2 °C 1018.2 hPa 0.0 Km/h SE 0.0 mm  19.1 °C 21.1 °C
S. Maria Maddalena (RO) 28/05/18 05.05 20.2 °C 89 % 18.2 °C 1015.2 hPa 0.0 Km/h NE 0.0 mm  20.2 °C 22.0 °C
S. Martino Lupari (PD) 24/05/18 12.40 26.1 °C 64 % 18.8 °C 883.9 hPa 1.6 Km/h NE 1.4 mm  17.5 °C 26.2 °C
S. Rocco di Villabalzana (VI) 28/05/18 05.11 18.4 °C 77 % 14.4 °C 1016.4 hPa 3.2 Km/h NNW 0.0 mm  18.2 °C 20.2 °C
Sacile (PN) 28/05/18 04.55 18.6 °C 88 % 16.6 °C 1017.2 hPa 1.6 Km/h NE 0.0 mm  18.6 °C 23.3 °C
Salcedo (VI) 28/05/18 05.08 19.7 °C 64 % 12.7 °C 1017.6 hPa 7.2 Km/h N 0.0 mm  19.1 °C 20.3 °C
San Benedetto del Tronto (AP) 24/05/18 13.30 23.4 °C 71 % 17.8 °C 1015.5 hPa 5.6 Km/h NE 0.0 mm  17.8 °C 23.8 °C
San Cataldo (CL) 28/05/18 05.08 0.0 °C 100 % 0.0 °C 1017.7 hPa 0.0 Km/h NNE 0.0 mm  0.0 °C 0.0 °C
San Giovanni la Punta Trappeto (CT) 28/05/18 05.05 20.3 °C 67 % 14.0 °C 1017.4 hPa 4.8 Km/h NNW 0.0 mm  19.9 °C 21.1 °C
San Nazario (VI) 28/05/18 05.01 18.5 °C 78 % 14.6 °C 1017.5 hPa 7.2 Km/h NE 0.0 mm  18.5 °C 20.4 °C
San Pietro di Rosà (VI) 28/05/18 05.09 19.7 °C 74 % 14.9 °C 1020.0 hPa 8.0 Km/h NNE 0.0 mm  19.6 °C 21.4 °C
San Pietro in Cariano (VR) 28/05/18 04.59 20.0 °C 70 % 14.4 °C 1017.2 hPa 7.2 Km/h N 0.0 mm  20.0 °C 21.6 °C
San Potito Lugo (RA) 21/05/18 16.05 25.5 °C 45 % 12.7 °C 1014.7 hPa 0.0 Km/h NW 0.0 mm  14.4 °C 30.7 °C
San Salvo3 (CH) 28/05/18 05.09 18.3 °C 91 % 16.8 °C 1014.1 hPa 3.2 Km/h SSW 0.0 mm  17.7 °C 19.0 °C
San Vito (CA) 28/05/18 05.09 21.1 °C 74 % 16.3 °C 1007.1 hPa 0.0 Km/h NE 0.0 mm  21.1 °C 21.1 °C
San Zeno di Mont. Loc. Castello (VR) 28/05/18 05.08 18.5 °C 61 % 10.6 °C 1015.9 hPa 3.0 Km/h WSW 0.0 mm  17.2 °C 18.6 °C
Santa Maria di Negrar (VR) 28/05/18 05.00 17.5 °C 82 % 14.4 °C 1018.2 hPa 0.0 Km/h W 0.0 mm  17.5 °C 20.9 °C
Sarcedo (VI) 28/05/18 05.09 20.2 °C 67 % 13.9 °C 1015.8 hPa 0.0 Km/h NNE 0.0 mm  20.2 °C 22.1 °C
Savelli (KR) 28/05/18 05.08 17.6 °C 55 % 8.5 °C 1017.1 hPa 0.6 Km/h W 0.0 mm  17.5 °C 18.7 °C
Schio (VI) 28/05/18 04.45 17.9 °C 82 % 14.8 °C 1018.0 hPa 4.8 Km/h NW 0.2 mm  17.9 °C 20.3 °C
Schio Monte Magré (VI) 28/05/18 05.09 17.1 °C 86 % 14.7 °C 0.0 hPa 6.4 Km/h W 0.0 mm  17.1 °C 18.2 °C
Seremange Erzange (Moselle) 28/05/18 05.08 16.0 °C 87 % 13.8 °C 1016.7 hPa 0.0 Km/h W 0.0 mm  16.1 °C 19.7 °C
Sinnai (CA) 27/05/18 23.50 21.5 °C 67 % 15.1 °C 1015.6 hPa 3.2 Km/h NW 0.0 mm  20.8 °C 30.6 °C
Soave Borgo Bassano (VR) 28/05/18 05.05 22.4 °C 69 % 16.4 °C 1016.5 hPa 5.0 Km/h ENE 0.0 mm  20.2 °C 23.7 °C
Sona Loc. La Colombara (VR) 28/05/18 05.00 18.4 °C 84 % 15.6 °C 1013.3 hPa 2.0 Km/h N 0.0 mm  16.9 °C 21.0 °C
Soriso (NO) 28/05/18 05.00 15.9 °C 93 % 14.8 °C 1018.0 hPa 1.6 Km/h E 6.3 mm  15.8 °C 16.7 °C
Staranzano (GO) 28/05/18 05.01 19.6 °C 70 % 13.9 °C 1017.2 hPa 0.0 Km/h NE 0.0 mm  19.6 °C 21.2 °C
Stiore - Monteveglio (BO) 28/05/18 05.09 17.1 °C 95 % 16.3 °C 1013.0 hPa 0.0 Km/h N 0.8 mm  17.1 °C 20.2 °C
Taio Mollaro (TN) 28/05/18 05.08 12.7 °C 93 % 11.6 °C 1022.6 hPa 0.0 Km/h NNE 0.2 mm  12.6 °C 15.2 °C
Tombolo (PD) 28/05/18 05.09 19.3 °C 89 % 17.4 °C 1016.9 hPa 0.0 Km/h ENE 0.0 mm  19.3 °C 21.5 °C
Torino Regio Parco (TO) 28/05/18 05.11 16.6 °C 92 % 15.3 °C 1020.4 hPa 0.6 Km/h W 9.0 mm  16.3 °C 22.4 °C
Torre Annunziata (NA) 28/05/18 05.00 20.9 °C 86 % 18.5 °C 1017.4 hPa 0.0 Km/h W 0.0 mm  20.9 °C 23.0 °C
Torremaggiore (FG) 28/05/18 05.09 18.7 °C 84 % 16.0 °C 1015.8 hPa 1.6 Km/h NNE 0.0 mm  17.9 °C 20.8 °C
Torri (FI) 28/05/18 04.30 17.3 °C 94 % 16.3 °C 1015.6 hPa 0.0 Km/h --- 0.0 mm  17.3 °C 20.1 °C
Torrita di Siena (SI) 28/05/18 05.00 15.8 °C 92 % 14.5 °C 1017.9 hPa 3.2 Km/h SSE 0.0 mm  15.8 °C 18.7 °C
Tregnago Loc. Centro (VR) 28/05/18 05.05 19.3 °C 74 % 14.6 °C 1010.8 hPa 8.0 Km/h ENE 0.0 mm  18.9 °C 20.2 °C
Trento (TN) 28/05/18 05.09 16.8 °C 85 % 14.3 °C 1019.0 hPa 9.7 Km/h NE 0.0 mm  16.8 °C 18.8 °C
Treviso (TV) 28/05/18 05.09 19.5 °C 81 % 16.2 °C 1016.6 hPa 0.0 Km/h N 0.0 mm  19.5 °C 21.2 °C
Tuscania (VT) 24/05/18 17.00 24.1 °C 72 % 18.7 °C 1015.9 hPa 4.3 Km/h WSW 0.0 mm  14.9 °C 25.5 °C
Valdagno (VI) 28/05/18 05.09 16.4 °C 95 % 15.6 °C 995.0 hPa 2.5 Km/h NW 0.0 mm  16.3 °C 17.3 °C
Valdobbiadene San Pietro di Barbozza (TV) 28/05/18 05.05 20.3 °C 68 % 14.2 °C 1015.8 hPa 3.2 Km/h N 0.0 mm  20.2 °C 21.7 °C
Valentano (VT) 28/05/18 05.09 19.6 °C 66 % 12.8 °C 1015.2 hPa 13.0 Km/h E 0.0 mm  17.9 °C 20.1 °C
Valenza (AL) 28/05/18 05.01 17.3 °C 89 % 15.4 °C 1016.1 hPa 6.4 Km/h NW 2.5 mm  17.2 °C 21.0 °C
Valli del Pasubio loc. Gisbenti (VI) 27/05/18 07.38 17.9 °C 68 % 11.9 °C 975.0 hPa 0.0 Km/h --- 0.0 mm  17.9 °C 17.9 °C
Varese Ligure (SP) 28/05/18 05.08 15.4 °C 45 % 3.5 °C 1027.3 hPa 5.0 Km/h NE 0.0 mm  15.4 °C 17.5 °C
Vasto (CH) 27/05/18 20.55 22.7 °C 10 % -10.5 °C 1015.6 hPa 0.4 Km/h --- 0.0 mm  17.1 °C 26.5 °C
Vattaro fraz. Pian dei Pradi (TN) 28/05/18 05.11 11.7 °C 96 % 11.1 °C 1019.3 hPa 6.5 Km/h NNW 0.0 mm  11.7 °C 13.1 °C
Vazzo Roveré Veronese (VR) 28/05/18 05.09 16.0 °C 79 % 12.4 °C 1014.1 hPa 8.0 Km/h ENE 0.0 mm  16.0 °C 17.2 °C
Verona Bgo Venezia (iz3sly) (VR) 27/05/18 21.58 19.8 °C 77 % 15.6 °C 1016.1 hPa 0.0 Km/h SSE 0.0 mm  19.5 °C 30.6 °C
Verona Cadidavid2 (VR) 28/05/18 05.00 18.4 °C 78 % 14.5 °C 1015.1 hPa 0.0 Km/h WSW 0.0 mm  18.2 °C 21.3 °C
Verona Saval3 (VR) 28/05/18 05.02 19.6 °C 78 % 15.7 °C 1017.5 hPa 4.7 Km/h ENE 0.0 mm  19.5 °C 22.8 °C
Vicenza Campedello (VI) 28/05/18 05.16 15.9 °C 98 % 15.6 °C 1017.8 hPa 0.0 Km/h W 0.4 mm  15.8 °C 18.1 °C
Vicenza Moracchino (VI) 28/05/18 05.09 17.9 °C 87 % 15.7 °C 1016.0 hPa 6.4 Km/h NNW 0.2 mm  17.8 °C 19.1 °C
Vicenza Pecori Giraldi (VI) 28/05/18 05.01 18.8 °C 100 % 18.8 °C 1020.2 hPa 0.0 Km/h NW 0.0 mm  18.8 °C 19.9 °C
Vicenza S. Lazzaro (VI) 28/05/18 05.08 19.1 °C 85 % 16.7 °C 1015.8 hPa 0.0 Km/h SSW 0.0 mm  18.9 °C 19.5 °C
Vicenza San Gaetano (VI) 27/05/18 23.41 19.5 °C 96 % 18.8 °C 1017.3 hPa 0.0 Km/h SSW 9.6 mm  19.4 °C 30.9 °C
Vieste (FG) 28/05/18 05.09 20.6 °C 69 % 14.7 °C 1018.4 hPa 7.6 Km/h S 0.0 mm  19.7 °C 21.8 °C
Vigardolo (VI) 28/05/18 05.02 19.0 °C 77 % 14.9 °C 1016.5 hPa 1.1 Km/h S 0.0 mm  19.0 °C 21.1 °C
Vigasio (VR) 28/05/18 05.00 20.3 °C 82 % 17.2 °C 1014.9 hPa 0.0 Km/h --- 0.0 mm  20.1 °C 22.4 °C
Vigevano (PV) 28/05/18 05.09 17.1 °C 95 % 16.3 °C 1014.8 hPa 5.0 Km/h SW 27.0 mm  17.1 °C 22.6 °C
Villabartolomea (VR) 28/05/18 04.58 19.9 °C 82 % 16.7 °C 1015.5 hPa 4.8 Km/h ENE 0.0 mm  19.8 °C 21.4 °C
Viozene Toria (CN) 28/05/18 05.09 10.2 °C 83 % 7.4 °C 1025.2 hPa 3.0 Km/h N 3.3 mm  10.2 °C 12.0 °C
Viterbo Santa Barbara (VT) 27/05/18 23.10 18.7 °C 80 % 15.1 °C 1017.0 hPa 0.0 Km/h WSW 0.0 mm  18.7 °C 27.3 °C
Viterbo Strada Bagni (VT) 28/05/18 05.09 14.2 °C 92 % 12.8 °C 1017.0 hPa 0.0 Km/h W 0.0 mm  14.1 °C 16.4 °C
Vitorchiano Pallone (VT) 27/05/18 18.50 25.3 °C 62 % 17.5 °C 1015.2 hPa 1.6 Km/h WNW 0.0 mm  17.9 °C 27.9 °C
Vittorio Veneto Parco Fenderl (TV) 28/05/18 00.20 21.9 °C 71 % 16.4 °C 1018.5 hPa 11.3 Km/h SSW 0.0 mm  21.9 °C 22.1 °C
Volpago del Montello (TV) 28/05/18 05.00 18.3 °C 86 % 15.9 °C 1016.5 hPa 0.0 Km/h --- 0.0 mm  18.3 °C 19.7 °C
 
(*) = Precipitazioni nelle ultime 24h.
Dati non aggiornati nell'ultima ora.
   
In collaborazione con: